Rowland Heights, California
Current Conditions -  °F | °C
As of 8:53 AM on Wednesday 26 Nov 2014 (Local Time) from KFUL Reporting Station
Clear Clear  
Wind Chill: 67°   Ceiling: Unl
Heat Index: 67°   Visibility: 10mi
Dew Point: 24°   Wind: 3mph
Humidity: 20%   Direction: 130°SE
Pressure: 30.23"   Gusts: NA
Location:  33.99°N, 117.9°W
Report Text: KFUL 261653Z 13003KT 10SM CLR 19/M04 A3023 RMK AO2 SLP235 T01941044
Loading
Personal Weather Stations






























Interactive Weather Map New forecast layout! Learn more

10-Day Weather Forecast

Advertisements
Track Severe Weather on mobile